sensor_id;sensor_type;location;lat;lon;timestamp;P1;durP1;ratioP1;P2;durP2;ratioP2
67804;SDS011;54603;45.638;11.714;2023-03-19T00:00:16;6.90;;;4.50;;
67804;SDS011;54603;45.638;11.714;2023-03-19T00:02:49;7.10;;;5.00;;
67804;SDS011;54603;45.638;11.714;2023-03-19T00:05:16;8.20;;;5.10;;
67804;SDS011;54603;45.638;11.714;2023-03-19T00:07:42;6.20;;;4.70;;
67804;SDS011;54603;45.638;11.714;2023-03-19T00:10:08;6.70;;;4.90;;
67804;SDS011;54603;45.638;11.714;2023-03-19T00:12:34;6.70;;;5.20;;
67804;SDS011;54603;45.638;11.714;2023-03-19T00:15:00;6.00;;;4.90;;
67804;SDS011;54603;45.638;11.714;2023-03-19T00:17:25;8.30;;;4.90;;
67804;SDS011;54603;45.638;11.714;2023-03-19T00:19:51;8.10;;;4.80;;
67804;SDS011;54603;45.638;11.714;2023-03-19T00:22:16;5.70;;;5.00;;
67804;SDS011;54603;45.638;11.714;2023-03-19T00:24:42;5.30;;;4.60;;
67804;SDS011;54603;45.638;11.714;2023-03-19T00:27:08;7.10;;;4.90;;
67804;SDS011;54603;45.638;11.714;2023-03-19T00:29:34;5.80;;;5.00;;
67804;SDS011;54603;45.638;11.714;2023-03-19T00:32:00;7.30;;;5.00;;
67804;SDS011;54603;45.638;11.714;2023-03-19T00:34:26;6.50;;;5.00;;
67804;SDS011;54603;45.638;11.714;2023-03-19T00:36:52;8.80;;;5.50;;
67804;SDS011;54603;45.638;11.714;2023-03-19T00:39:17;7.40;;;5.30;;
67804;SDS011;54603;45.638;11.714;2023-03-19T00:41:44;6.90;;;5.20;;
67804;SDS011;54603;45.638;11.714;2023-03-19T00:44:15;6.20;;;5.40;;
67804;SDS011;54603;45.638;11.714;2023-03-19T00:46:42;7.90;;;4.80;;
67804;SDS011;54603;45.638;11.714;2023-03-19T00:49:08;5.70;;;5.10;;
67804;SDS011;54603;45.638;11.714;2023-03-19T00:51:33;6.10;;;4.80;;
67804;SDS011;54603;45.638;11.714;2023-03-19T00:53:59;6.30;;;5.20;;
67804;SDS011;54603;45.638;11.714;2023-03-19T00:56:24;7.00;;;5.40;;
67804;SDS011;54603;45.638;11.714;2023-03-19T00:58:50;6.50;;;5.30;;
67804;SDS011;54603;45.638;11.714;2023-03-19T01:01:16;6.00;;;5.30;;
67804;SDS011;54603;45.638;11.714;2023-03-19T01:03:42;5.90;;;5.20;;
67804;SDS011;54603;45.638;11.714;2023-03-19T01:06:09;5.70;;;5.00;;
67804;SDS011;54603;45.638;11.714;2023-03-19T01:08:35;8.20;;;5.20;;
67804;SDS011;54603;45.638;11.714;2023-03-19T01:11:07;6.50;;;5.40;;
67804;SDS011;54603;45.638;11.714;2023-03-19T01:13:34;7.50;;;5.50;;
67804;SDS011;54603;45.638;11.714;2023-03-19T01:16:00;6.40;;;5.50;;
67804;SDS011;54603;45.638;11.714;2023-03-19T01:18:26;7.40;;;5.20;;
67804;SDS011;54603;45.638;11.714;2023-03-19T01:20:52;6.40;;;5.20;;
67804;SDS011;54603;45.638;11.714;2023-03-19T01:23:17;6.00;;;5.10;;
67804;SDS011;54603;45.638;11.714;2023-03-19T01:25:43;7.50;;;5.30;;
67804;SDS011;54603;45.638;11.714;2023-03-19T01:28:08;7.80;;;5.40;;
67804;SDS011;54603;45.638;11.714;2023-03-19T01:30:34;7.10;;;5.30;;
67804;SDS011;54603;45.638;11.714;2023-03-19T01:32:59;7.10;;;5.50;;
67804;SDS011;54603;45.638;11.714;2023-03-19T01:35:25;6.10;;;5.20;;
67804;SDS011;54603;45.638;11.714;2023-03-19T01:37:50;7.50;;;5.20;;
67804;SDS011;54603;45.638;11.714;2023-03-19T01:40:16;6.00;;;5.10;;
67804;SDS011;54603;45.638;11.714;2023-03-19T01:42:55;6.80;;;5.50;;
67804;SDS011;54603;45.638;11.714;2023-03-19T01:45:29;6.80;;;5.50;;
67804;SDS011;54603;45.638;11.714;2023-03-19T01:47:57;5.50;;;4.80;;
67804;SDS011;54603;45.638;11.714;2023-03-19T01:50:24;6.80;;;5.40;;
67804;SDS011;54603;45.638;11.714;2023-03-19T01:52:52;7.90;;;5.30;;
67804;SDS011;54603;45.638;11.714;2023-03-19T01:55:18;7.40;;;5.70;;
67804;SDS011;54603;45.638;11.714;2023-03-19T01:57:44;6.40;;;5.50;;
67804;SDS011;54603;45.638;11.714;2023-03-19T02:00:10;6.80;;;5.40;;
67804;SDS011;54603;45.638;11.714;2023-03-19T02:02:36;7.10;;;5.20;;
67804;SDS011;54603;45.638;11.714;2023-03-19T02:05:07;6.80;;;5.50;;
67804;SDS011;54603;45.638;11.714;2023-03-19T02:07:36;9.20;;;5.80;;
67804;SDS011;54603;45.638;11.714;2023-03-19T02:10:04;6.60;;;5.60;;
67804;SDS011;54603;45.638;11.714;2023-03-19T02:12:31;7.50;;;5.50;;
67804;SDS011;54603;45.638;11.714;2023-03-19T02:14:57;8.00;;;5.30;;
67804;SDS011;54603;45.638;11.714;2023-03-19T02:17:23;6.30;;;5.20;;
67804;SDS011;54603;45.638;11.714;2023-03-19T02:19:53;5.30;;;4.60;;
67804;SDS011;54603;45.638;11.714;2023-03-19T02:22:23;6.90;;;5.20;;
67804;SDS011;54603;45.638;11.714;2023-03-19T02:24:58;6.10;;;5.00;;
67804;SDS011;54603;45.638;11.714;2023-03-19T02:27:29;6.50;;;5.40;;
67804;SDS011;54603;45.638;11.714;2023-03-19T02:29:55;7.00;;;5.60;;
67804;SDS011;54603;45.638;11.714;2023-03-19T02:32:21;6.40;;;5.40;;
67804;SDS011;54603;45.638;11.714;2023-03-19T02:34:46;6.50;;;5.30;;
67804;SDS011;54603;45.638;11.714;2023-03-19T02:37:16;6.30;;;5.20;;
67804;SDS011;54603;45.638;11.714;2023-03-19T02:39:47;7.20;;;5.70;;
67804;SDS011;54603;45.638;11.714;2023-03-19T02:42:19;7.20;;;5.70;;
67804;SDS011;54603;45.638;11.714;2023-03-19T02:44:47;6.20;;;5.40;;
67804;SDS011;54603;45.638;11.714;2023-03-19T02:47:12;6.80;;;5.60;;
67804;SDS011;54603;45.638;11.714;2023-03-19T02:49:38;5.90;;;5.30;;
67804;SDS011;54603;45.638;11.714;2023-03-19T02:52:04;6.40;;;5.30;;
67804;SDS011;54603;45.638;11.714;2023-03-19T02:54:29;6.30;;;5.30;;
67804;SDS011;54603;45.638;11.714;2023-03-19T02:56:55;6.80;;;5.50;;
67804;SDS011;54603;45.638;11.714;2023-03-19T02:59:21;5.90;;;5.30;;
67804;SDS011;54603;45.638;11.714;2023-03-19T03:01:46;7.40;;;5.40;;
67804;SDS011;54603;45.638;11.714;2023-03-19T03:04:12;6.90;;;5.50;;
67804;SDS011;54603;45.638;11.714;2023-03-19T03:06:40;6.10;;;5.50;;
67804;SDS011;54603;45.638;11.714;2023-03-19T03:09:07;8.60;;;6.00;;
67804;SDS011;54603;45.638;11.714;2023-03-19T03:11:33;8.10;;;5.30;;
67804;SDS011;54603;45.638;11.714;2023-03-19T03:13:58;6.80;;;5.80;;
67804;SDS011;54603;45.638;11.714;2023-03-19T03:16:24;6.20;;;5.00;;
67804;SDS011;54603;45.638;11.714;2023-03-19T03:18:49;8.30;;;5.60;;
67804;SDS011;54603;45.638;11.714;2023-03-19T03:21:15;7.50;;;5.80;;
67804;SDS011;54603;45.638;11.714;2023-03-19T03:23:44;6.20;;;5.20;;
67804;SDS011;54603;45.638;11.714;2023-03-19T03:26:10;6.70;;;5.40;;
67804;SDS011;54603;45.638;11.714;2023-03-19T03:28:37;6.20;;;5.30;;
67804;SDS011;54603;45.638;11.714;2023-03-19T03:31:03;5.80;;;5.10;;
67804;SDS011;54603;45.638;11.714;2023-03-19T03:33:28;6.60;;;5.10;;
67804;SDS011;54603;45.638;11.714;2023-03-19T03:35:54;6.90;;;5.30;;
67804;SDS011;54603;45.638;11.714;2023-03-19T03:38:21;5.90;;;5.30;;
67804;SDS011;54603;45.638;11.714;2023-03-19T03:40:50;6.00;;;5.10;;
67804;SDS011;54603;45.638;11.714;2023-03-19T03:43:16;6.60;;;5.30;;
67804;SDS011;54603;45.638;11.714;2023-03-19T03:45:44;7.90;;;5.50;;
67804;SDS011;54603;45.638;11.714;2023-03-19T03:48:09;7.40;;;5.70;;
67804;SDS011;54603;45.638;11.714;2023-03-19T03:50:35;6.00;;;5.20;;
67804;SDS011;54603;45.638;11.714;2023-03-19T03:53:01;6.20;;;5.00;;
67804;SDS011;54603;45.638;11.714;2023-03-19T03:55:26;7.60;;;6.10;;
67804;SDS011;54603;45.638;11.714;2023-03-19T03:57:52;8.40;;;5.70;;
67804;SDS011;54603;45.638;11.714;2023-03-19T04:00:18;7.00;;;5.70;;
67804;SDS011;54603;45.638;11.714;2023-03-19T04:02:44;5.80;;;5.20;;
67804;SDS011;54603;45.638;11.714;2023-03-19T04:05:10;8.80;;;5.70;;
67804;SDS011;54603;45.638;11.714;2023-03-19T04:07:36;6.60;;;5.40;;
67804;SDS011;54603;45.638;11.714;2023-03-19T04:10:02;6.10;;;5.20;;
67804;SDS011;54603;45.638;11.714;2023-03-19T04:12:28;6.20;;;5.20;;
67804;SDS011;54603;45.638;11.714;2023-03-19T04:14:54;6.90;;;5.50;;
67804;SDS011;54603;45.638;11.714;2023-03-19T04:17:19;6.20;;;5.30;;
67804;SDS011;54603;45.638;11.714;2023-03-19T04:19:45;6.80;;;5.20;;
67804;SDS011;54603;45.638;11.714;2023-03-19T04:22:11;6.80;;;5.40;;
67804;SDS011;54603;45.638;11.714;2023-03-19T04:24:36;7.20;;;5.20;;
67804;SDS011;54603;45.638;11.714;2023-03-19T04:27:02;6.90;;;5.70;;
67804;SDS011;54603;45.638;11.714;2023-03-19T04:29:28;6.90;;;5.50;;
67804;SDS011;54603;45.638;11.714;2023-03-19T04:31:53;7.20;;;5.70;;
67804;SDS011;54603;45.638;11.714;2023-03-19T04:34:19;7.40;;;5.70;;
67804;SDS011;54603;45.638;11.714;2023-03-19T04:36:45;7.40;;;5.40;;
67804;SDS011;54603;45.638;11.714;2023-03-19T04:39:10;6.30;;;5.30;;
67804;SDS011;54603;45.638;11.714;2023-03-19T04:41:36;5.60;;;5.00;;
67804;SDS011;54603;45.638;11.714;2023-03-19T04:44:01;6.80;;;5.10;;
67804;SDS011;54603;45.638;11.714;2023-03-19T04:46:27;6.10;;;5.10;;
67804;SDS011;54603;45.638;11.714;2023-03-19T04:48:52;8.90;;;5.30;;
67804;SDS011;54603;45.638;11.714;2023-03-19T04:51:18;8.10;;;5.40;;
67804;SDS011;54603;45.638;11.714;2023-03-19T04:53:45;7.00;;;5.50;;
67804;SDS011;54603;45.638;11.714;2023-03-19T04:56:11;6.80;;;5.30;;
67804;SDS011;54603;45.638;11.714;2023-03-19T04:58:40;7.10;;;5.60;;
67804;SDS011;54603;45.638;11.714;2023-03-19T05:01:06;8.20;;;6.20;;
67804;SDS011;54603;45.638;11.714;2023-03-19T05:03:32;7.20;;;5.70;;
67804;SDS011;54603;45.638;11.714;2023-03-19T05:05:58;7.70;;;5.70;;
67804;SDS011;54603;45.638;11.714;2023-03-19T05:08:23;6.80;;;5.50;;
67804;SDS011;54603;45.638;11.714;2023-03-19T05:10:49;6.60;;;5.40;;
67804;SDS011;54603;45.638;11.714;2023-03-19T05:13:14;6.70;;;5.20;;
67804;SDS011;54603;45.638;11.714;2023-03-19T05:15:41;6.20;;;5.00;;
67804;SDS011;54603;45.638;11.714;2023-03-19T05:18:07;7.60;;;5.80;;
67804;SDS011;54603;45.638;11.714;2023-03-19T05:20:33;7.30;;;5.60;;
67804;SDS011;54603;45.638;11.714;2023-03-19T05:22:59;6.60;;;5.10;;
67804;SDS011;54603;45.638;11.714;2023-03-19T05:25:25;6.90;;;5.20;;
67804;SDS011;54603;45.638;11.714;2023-03-19T05:27:51;7.60;;;5.90;;
67804;SDS011;54603;45.638;11.714;2023-03-19T05:30:16;7.00;;;5.70;;
67804;SDS011;54603;45.638;11.714;2023-03-19T05:32:42;6.80;;;5.80;;
67804;SDS011;54603;45.638;11.714;2023-03-19T05:35:10;6.60;;;5.70;;
67804;SDS011;54603;45.638;11.714;2023-03-19T05:37:37;5.70;;;5.10;;
67804;SDS011;54603;45.638;11.714;2023-03-19T05:40:03;5.50;;;5.00;;
67804;SDS011;54603;45.638;11.714;2023-03-19T05:42:29;6.90;;;5.30;;
67804;SDS011;54603;45.638;11.714;2023-03-19T05:44:55;6.90;;;5.50;;
67804;SDS011;54603;45.638;11.714;2023-03-19T05:47:20;6.60;;;5.30;;
67804;SDS011;54603;45.638;11.714;2023-03-19T05:49:46;6.40;;;5.40;;
67804;SDS011;54603;45.638;11.714;2023-03-19T05:52:12;5.90;;;5.30;;
67804;SDS011;54603;45.638;11.714;2023-03-19T05:54:37;7.10;;;5.50;;
67804;SDS011;54603;45.638;11.714;2023-03-19T05:57:03;7.80;;;5.60;;
67804;SDS011;54603;45.638;11.714;2023-03-19T05:59:29;6.40;;;5.40;;
67804;SDS011;54603;45.638;11.714;2023-03-19T06:01:54;7.80;;;5.40;;
67804;SDS011;54603;45.638;11.714;2023-03-19T06:04:20;7.40;;;5.50;;
67804;SDS011;54603;45.638;11.714;2023-03-19T06:06:45;6.50;;;5.40;;
67804;SDS011;54603;45.638;11.714;2023-03-19T06:09:11;6.50;;;5.40;;
67804;SDS011;54603;45.638;11.714;2023-03-19T06:11:37;6.60;;;5.40;;
67804;SDS011;54603;45.638;11.714;2023-03-19T06:14:04;6.40;;;5.20;;
67804;SDS011;54603;45.638;11.714;2023-03-19T06:16:31;7.30;;;5.30;;
67804;SDS011;54603;45.638;11.714;2023-03-19T06:18:56;5.90;;;5.20;;
67804;SDS011;54603;45.638;11.714;2023-03-19T06:21:22;7.70;;;5.60;;
67804;SDS011;54603;45.638;11.714;2023-03-19T06:23:53;7.10;;;5.30;;
67804;SDS011;54603;45.638;11.714;2023-03-19T06:26:20;5.90;;;5.20;;
67804;SDS011;54603;45.638;11.714;2023-03-19T06:28:46;6.00;;;5.40;;
67804;SDS011;54603;45.638;11.714;2023-03-19T06:31:12;6.40;;;4.90;;
67804;SDS011;54603;45.638;11.714;2023-03-19T06:33:37;6.80;;;5.00;;
67804;SDS011;54603;45.638;11.714;2023-03-19T06:36:03;6.60;;;5.50;;
67804;SDS011;54603;45.638;11.714;2023-03-19T06:38:29;6.70;;;5.50;;
67804;SDS011;54603;45.638;11.714;2023-03-19T06:40:55;7.90;;;5.70;;
67804;SDS011;54603;45.638;11.714;2023-03-19T06:43:21;6.90;;;5.20;;
67804;SDS011;54603;45.638;11.714;2023-03-19T06:45:47;7.10;;;5.50;;
67804;SDS011;54603;45.638;11.714;2023-03-19T06:48:13;11.10;;;5.60;;
67804;SDS011;54603;45.638;11.714;2023-03-19T06:50:38;5.80;;;5.20;;
67804;SDS011;54603;45.638;11.714;2023-03-19T06:53:04;8.60;;;5.00;;
67804;SDS011;54603;45.638;11.714;2023-03-19T06:55:30;6.70;;;5.30;;
67804;SDS011;54603;45.638;11.714;2023-03-19T06:57:55;6.30;;;5.00;;
67804;SDS011;54603;45.638;11.714;2023-03-19T07:00:21;6.70;;;5.30;;
67804;SDS011;54603;45.638;11.714;2023-03-19T07:02:47;7.70;;;5.70;;
67804;SDS011;54603;45.638;11.714;2023-03-19T07:05:13;6.60;;;5.50;;
67804;SDS011;54603;45.638;11.714;2023-03-19T07:07:38;7.40;;;5.70;;
67804;SDS011;54603;45.638;11.714;2023-03-19T07:10:05;8.30;;;5.60;;
67804;SDS011;54603;45.638;11.714;2023-03-19T07:12:35;7.90;;;5.60;;
67804;SDS011;54603;45.638;11.714;2023-03-19T07:15:04;7.80;;;5.90;;
67804;SDS011;54603;45.638;11.714;2023-03-19T07:17:31;7.70;;;5.70;;
67804;SDS011;54603;45.638;11.714;2023-03-19T07:19:59;6.90;;;5.80;;
67804;SDS011;54603;45.638;11.714;2023-03-19T07:22:25;8.20;;;5.20;;
67804;SDS011;54603;45.638;11.714;2023-03-19T07:24:51;6.70;;;5.60;;
67804;SDS011;54603;45.638;11.714;2023-03-19T07:27:16;7.30;;;5.60;;
67804;SDS011;54603;45.638;11.714;2023-03-19T07:29:42;8.60;;;5.90;;
67804;SDS011;54603;45.638;11.714;2023-03-19T07:32:09;7.40;;;5.30;;
67804;SDS011;54603;45.638;11.714;2023-03-19T07:34:35;8.30;;;5.90;;
67804;SDS011;54603;45.638;11.714;2023-03-19T07:37:01;8.90;;;6.00;;
67804;SDS011;54603;45.638;11.714;2023-03-19T07:39:27;8.20;;;5.70;;
67804;SDS011;54603;45.638;11.714;2023-03-19T07:41:53;8.90;;;5.80;;
67804;SDS011;54603;45.638;11.714;2023-03-19T07:44:23;8.10;;;6.10;;
67804;SDS011;54603;45.638;11.714;2023-03-19T07:46:48;7.30;;;6.10;;
67804;SDS011;54603;45.638;11.714;2023-03-19T07:49:14;9.80;;;6.20;;
67804;SDS011;54603;45.638;11.714;2023-03-19T07:51:40;11.50;;;6.10;;
67804;SDS011;54603;45.638;11.714;2023-03-19T07:54:05;9.70;;;6.30;;
67804;SDS011;54603;45.638;11.714;2023-03-19T07:56:31;7.70;;;6.50;;
67804;SDS011;54603;45.638;11.714;2023-03-19T07:58:57;7.80;;;5.80;;
67804;SDS011;54603;45.638;11.714;2023-03-19T08:01:24;7.70;;;5.90;;
67804;SDS011;54603;45.638;11.714;2023-03-19T08:03:50;8.50;;;5.90;;
67804;SDS011;54603;45.638;11.714;2023-03-19T08:06:16;7.50;;;5.50;;
67804;SDS011;54603;45.638;11.714;2023-03-19T08:08:41;7.90;;;6.00;;
67804;SDS011;54603;45.638;11.714;2023-03-19T08:11:07;8.70;;;5.80;;
67804;SDS011;54603;45.638;11.714;2023-03-19T08:13:33;7.90;;;5.80;;
67804;SDS011;54603;45.638;11.714;2023-03-19T08:15:58;8.00;;;6.20;;
67804;SDS011;54603;45.638;11.714;2023-03-19T08:18:24;9.30;;;5.80;;
67804;SDS011;54603;45.638;11.714;2023-03-19T08:20:50;7.30;;;6.20;;
67804;SDS011;54603;45.638;11.714;2023-03-19T08:23:17;10.70;;;6.00;;
67804;SDS011;54603;45.638;11.714;2023-03-19T08:25:43;8.00;;;6.00;;
67804;SDS011;54603;45.638;11.714;2023-03-19T08:28:09;8.30;;;5.90;;
67804;SDS011;54603;45.638;11.714;2023-03-19T08:30:35;7.50;;;5.70;;
67804;SDS011;54603;45.638;11.714;2023-03-19T08:33:01;9.50;;;5.90;;
67804;SDS011;54603;45.638;11.714;2023-03-19T08:35:27;8.80;;;6.00;;
67804;SDS011;54603;45.638;11.714;2023-03-19T08:37:53;6.40;;;5.60;;
67804;SDS011;54603;45.638;11.714;2023-03-19T08:40:24;7.00;;;5.60;;
67804;SDS011;54603;45.638;11.714;2023-03-19T08:42:52;7.00;;;5.60;;
67804;SDS011;54603;45.638;11.714;2023-03-19T08:45:24;8.30;;;5.60;;
67804;SDS011;54603;45.638;11.714;2023-03-19T08:47:55;7.40;;;5.80;;
67804;SDS011;54603;45.638;11.714;2023-03-19T08:50:24;7.60;;;5.40;;
67804;SDS011;54603;45.638;11.714;2023-03-19T08:52:54;6.40;;;5.60;;
67804;SDS011;54603;45.638;11.714;2023-03-19T08:55:31;11.40;;;5.90;;
67804;SDS011;54603;45.638;11.714;2023-03-19T08:58:01;9.60;;;5.80;;
67804;SDS011;54603;45.638;11.714;2023-03-19T09:00:27;7.30;;;5.50;;
67804;SDS011;54603;45.638;11.714;2023-03-19T09:02:52;9.50;;;6.10;;
67804;SDS011;54603;45.638;11.714;2023-03-19T09:05:18;8.10;;;5.40;;
67804;SDS011;54603;45.638;11.714;2023-03-19T09:07:51;9.40;;;5.50;;
67804;SDS011;54603;45.638;11.714;2023-03-19T09:10:43;8.60;;;5.50;;
67804;SDS011;54603;45.638;11.714;2023-03-19T09:13:18;11.20;;;5.40;;
67804;SDS011;54603;45.638;11.714;2023-03-19T09:15:43;7.20;;;5.60;;
67804;SDS011;54603;45.638;11.714;2023-03-19T09:18:12;9.70;;;5.40;;
67804;SDS011;54603;45.638;11.714;2023-03-19T09:20:38;9.50;;;5.60;;
67804;SDS011;54603;45.638;11.714;2023-03-19T09:23:03;7.70;;;5.80;;
67804;SDS011;54603;45.638;11.714;2023-03-19T09:25:29;7.60;;;5.10;;
67804;SDS011;54603;45.638;11.714;2023-03-19T09:27:55;8.00;;;5.40;;
67804;SDS011;54603;45.638;11.714;2023-03-19T09:30:20;8.90;;;5.40;;
67804;SDS011;54603;45.638;11.714;2023-03-19T09:32:46;8.50;;;5.50;;
67804;SDS011;54603;45.638;11.714;2023-03-19T09:35:12;8.00;;;5.60;;
67804;SDS011;54603;45.638;11.714;2023-03-19T09:37:38;8.50;;;5.30;;
67804;SDS011;54603;45.638;11.714;2023-03-19T09:40:05;7.50;;;5.40;;
67804;SDS011;54603;45.638;11.714;2023-03-19T09:42:48;9.00;;;5.30;;
67804;SDS011;54603;45.638;11.714;2023-03-19T09:45:37;7.80;;;5.50;;
67804;SDS011;54603;45.638;11.714;2023-03-19T09:48:06;13.00;;;5.60;;
67804;SDS011;54603;45.638;11.714;2023-03-19T09:50:41;11.00;;;6.20;;
67804;SDS011;54603;45.638;11.714;2023-03-19T09:55:47;8.90;;;5.60;;
67804;SDS011;54603;45.638;11.714;2023-03-19T09:58:16;10.30;;;5.70;;
67804;SDS011;54603;45.638;11.714;2023-03-19T10:00:48;10.60;;;5.50;;
67804;SDS011;54603;45.638;11.714;2023-03-19T10:03:25;10.80;;;5.30;;
67804;SDS011;54603;45.638;11.714;2023-03-19T10:09:11;8.90;;;5.20;;
67804;SDS011;54603;45.638;11.714;2023-03-19T10:11:51;9.10;;;4.60;;
67804;SDS011;54603;45.638;11.714;2023-03-19T10:21:10;6.70;;;4.90;;
67804;SDS011;54603;45.638;11.714;2023-03-19T10:23:41;10.90;;;5.20;;
67804;SDS011;54603;45.638;11.714;2023-03-19T10:26:13;8.50;;;5.40;;
67804;SDS011;54603;45.638;11.714;2023-03-19T10:29:02;7.20;;;4.90;;
67804;SDS011;54603;45.638;11.714;2023-03-19T10:31:52;6.80;;;4.80;;
67804;SDS011;54603;45.638;11.714;2023-03-19T10:34:31;5.70;;;4.70;;
67804;SDS011;54603;45.638;11.714;2023-03-19T10:37:04;7.20;;;5.00;;
67804;SDS011;54603;45.638;11.714;2023-03-19T10:39:36;7.00;;;4.90;;
67804;SDS011;54603;45.638;11.714;2023-03-19T10:45:02;8.30;;;4.90;;
67804;SDS011;54603;45.638;11.714;2023-03-19T10:47:34;9.40;;;4.90;;
67804;SDS011;54603;45.638;11.714;2023-03-19T10:50:10;7.90;;;4.70;;
67804;SDS011;54603;45.638;11.714;2023-03-19T10:52:42;9.00;;;4.80;;
67804;SDS011;54603;45.638;11.714;2023-03-19T10:55:22;10.90;;;5.50;;
67804;SDS011;54603;45.638;11.714;2023-03-19T10:57:55;8.70;;;5.70;;
67804;SDS011;54603;45.638;11.714;2023-03-19T11:00:27;11.10;;;7.30;;
67804;SDS011;54603;45.638;11.714;2023-03-19T11:02:58;19.60;;;11.10;;
67804;SDS011;54603;45.638;11.714;2023-03-19T11:05:30;18.00;;;10.90;;
67804;SDS011;54603;45.638;11.714;2023-03-19T11:08:05;18.40;;;10.80;;
67804;SDS011;54603;45.638;11.714;2023-03-19T11:10:43;16.80;;;10.60;;
67804;SDS011;54603;45.638;11.714;2023-03-19T11:13:17;16.50;;;10.20;;
67804;SDS011;54603;45.638;11.714;2023-03-19T11:15:45;19.10;;;11.40;;
67804;SDS011;54603;45.638;11.714;2023-03-19T11:18:18;16.20;;;9.40;;
67804;SDS011;54603;45.638;11.714;2023-03-19T11:20:52;14.30;;;9.30;;
67804;SDS011;54603;45.638;11.714;2023-03-19T11:23:21;15.70;;;8.60;;
67804;SDS011;54603;45.638;11.714;2023-03-19T11:25:49;13.40;;;7.70;;
67804;SDS011;54603;45.638;11.714;2023-03-19T11:28:17;11.50;;;7.10;;
67804;SDS011;54603;45.638;11.714;2023-03-19T11:30:48;12.80;;;7.00;;
67804;SDS011;54603;45.638;11.714;2023-03-19T11:39:02;8.30;;;5.60;;
67804;SDS011;54603;45.638;11.714;2023-03-19T11:49:45;11.10;;;5.30;;
67804;SDS011;54603;45.638;11.714;2023-03-19T11:58:03;10.20;;;5.30;;
67804;SDS011;54603;45.638;11.714;2023-03-19T12:09:08;9.10;;;5.10;;
67804;SDS011;54603;45.638;11.714;2023-03-19T12:11:52;8.00;;;5.00;;
67804;SDS011;54603;45.638;11.714;2023-03-19T12:14:41;6.10;;;4.60;;
67804;SDS011;54603;45.638;11.714;2023-03-19T12:17:19;8.30;;;5.00;;
67804;SDS011;54603;45.638;11.714;2023-03-19T12:20:18;6.80;;;4.70;;
67804;SDS011;54603;45.638;11.714;2023-03-19T12:23:05;6.50;;;4.60;;
67804;SDS011;54603;45.638;11.714;2023-03-19T12:25:40;7.30;;;4.60;;
67804;SDS011;54603;45.638;11.714;2023-03-19T12:30:44;8.30;;;5.20;;
67804;SDS011;54603;45.638;11.714;2023-03-19T12:35:58;8.50;;;4.40;;
67804;SDS011;54603;45.638;11.714;2023-03-19T12:38:36;5.60;;;4.30;;
67804;SDS011;54603;45.638;11.714;2023-03-19T12:41:05;7.20;;;4.50;;
67804;SDS011;54603;45.638;11.714;2023-03-19T12:46:32;7.60;;;4.50;;
67804;SDS011;54603;45.638;11.714;2023-03-19T12:51:34;6.90;;;4.50;;
67804;SDS011;54603;45.638;11.714;2023-03-19T12:56:43;6.50;;;4.40;;
67804;SDS011;54603;45.638;11.714;2023-03-19T12:59:35;8.50;;;4.50;;
67804;SDS011;54603;45.638;11.714;2023-03-19T13:02:37;6.80;;;4.70;;
67804;SDS011;54603;45.638;11.714;2023-03-19T13:05:07;7.60;;;4.50;;
67804;SDS011;54603;45.638;11.714;2023-03-19T13:10:41;6.30;;;4.40;;
67804;SDS011;54603;45.638;11.714;2023-03-19T13:13:23;7.20;;;3.80;;
67804;SDS011;54603;45.638;11.714;2023-03-19T13:16:17;5.00;;;4.00;;
67804;SDS011;54603;45.638;11.714;2023-03-19T13:18:56;5.70;;;3.90;;
67804;SDS011;54603;45.638;11.714;2023-03-19T13:21:30;7.90;;;4.10;;
67804;SDS011;54603;45.638;11.714;2023-03-19T13:24:03;6.60;;;3.90;;
67804;SDS011;54603;45.638;11.714;2023-03-19T13:26:37;7.20;;;3.50;;
67804;SDS011;54603;45.638;11.714;2023-03-19T13:29:24;5.40;;;3.50;;
67804;SDS011;54603;45.638;11.714;2023-03-19T13:31:51;5.80;;;3.50;;
67804;SDS011;54603;45.638;11.714;2023-03-19T13:34:24;8.30;;;3.80;;
67804;SDS011;54603;45.638;11.714;2023-03-19T13:36:53;6.60;;;4.10;;
67804;SDS011;54603;45.638;11.714;2023-03-19T13:39:30;7.10;;;4.00;;
67804;SDS011;54603;45.638;11.714;2023-03-19T13:45:03;6.90;;;4.10;;
67804;SDS011;54603;45.638;11.714;2023-03-19T13:47:50;7.50;;;3.60;;
67804;SDS011;54603;45.638;11.714;2023-03-19T13:52:48;6.70;;;3.90;;
67804;SDS011;54603;45.638;11.714;2023-03-19T13:55:30;7.20;;;4.20;;
67804;SDS011;54603;45.638;11.714;2023-03-19T14:03:26;4.70;;;3.70;;
67804;SDS011;54603;45.638;11.714;2023-03-19T14:05:54;6.90;;;3.60;;
67804;SDS011;54603;45.638;11.714;2023-03-19T14:08:26;7.80;;;4.50;;
67804;SDS011;54603;45.638;11.714;2023-03-19T14:13:30;6.50;;;4.10;;
67804;SDS011;54603;45.638;11.714;2023-03-19T14:16:36;6.80;;;4.30;;
67804;SDS011;54603;45.638;11.714;2023-03-19T14:19:03;7.10;;;3.90;;
67804;SDS011;54603;45.638;11.714;2023-03-19T14:24:27;7.80;;;5.00;;
67804;SDS011;54603;45.638;11.714;2023-03-19T14:27:00;8.40;;;4.60;;
67804;SDS011;54603;45.638;11.714;2023-03-19T14:29:46;5.20;;;3.60;;
67804;SDS011;54603;45.638;11.714;2023-03-19T14:32:17;6.70;;;3.90;;
67804;SDS011;54603;45.638;11.714;2023-03-19T14:37:22;5.70;;;3.70;;
67804;SDS011;54603;45.638;11.714;2023-03-19T14:53:27;5.30;;;3.40;;
67804;SDS011;54603;45.638;11.714;2023-03-19T14:56:18;4.70;;;3.70;;
67804;SDS011;54603;45.638;11.714;2023-03-19T14:58:46;4.60;;;3.50;;
67804;SDS011;54603;45.638;11.714;2023-03-19T15:01:12;7.30;;;3.60;;
67804;SDS011;54603;45.638;11.714;2023-03-19T15:03:39;4.70;;;3.40;;
67804;SDS011;54603;45.638;11.714;2023-03-19T15:06:05;4.40;;;3.50;;
67804;SDS011;54603;45.638;11.714;2023-03-19T15:08:32;3.80;;;3.40;;
67804;SDS011;54603;45.638;11.714;2023-03-19T15:14:10;4.00;;;3.30;;
67804;SDS011;54603;45.638;11.714;2023-03-19T15:17:09;5.30;;;3.40;;
67804;SDS011;54603;45.638;11.714;2023-03-19T15:19:42;4.50;;;3.30;;
67804;SDS011;54603;45.638;11.714;2023-03-19T15:22:18;3.70;;;3.30;;
67804;SDS011;54603;45.638;11.714;2023-03-19T15:24:50;3.90;;;3.20;;
67804;SDS011;54603;45.638;11.714;2023-03-19T15:27:25;5.20;;;3.20;;
67804;SDS011;54603;45.638;11.714;2023-03-19T15:29:51;3.50;;;3.00;;
67804;SDS011;54603;45.638;11.714;2023-03-19T15:32:37;4.20;;;3.40;;
67804;SDS011;54603;45.638;11.714;2023-03-19T15:35:05;3.70;;;2.80;;
67804;SDS011;54603;45.638;11.714;2023-03-19T15:37:34;5.10;;;3.10;;
67804;SDS011;54603;45.638;11.714;2023-03-19T15:40:05;6.50;;;3.00;;
67804;SDS011;54603;45.638;11.714;2023-03-19T15:42:34;5.10;;;3.10;;
67804;SDS011;54603;45.638;11.714;2023-03-19T15:45:07;4.70;;;2.90;;
67804;SDS011;54603;45.638;11.714;2023-03-19T15:47:34;4.60;;;2.70;;
67804;SDS011;54603;45.638;11.714;2023-03-19T15:52:39;4.60;;;3.10;;
67804;SDS011;54603;45.638;11.714;2023-03-19T15:55:06;5.00;;;2.90;;
67804;SDS011;54603;45.638;11.714;2023-03-19T15:57:35;6.20;;;3.70;;
67804;SDS011;54603;45.638;11.714;2023-03-19T16:00:05;6.20;;;3.50;;
67804;SDS011;54603;45.638;11.714;2023-03-19T16:02:34;5.00;;;3.50;;
67804;SDS011;54603;45.638;11.714;2023-03-19T16:05:04;3.80;;;3.40;;
67804;SDS011;54603;45.638;11.714;2023-03-19T16:07:40;5.10;;;3.30;;
67804;SDS011;54603;45.638;11.714;2023-03-19T16:15:24;4.50;;;3.30;;
67804;SDS011;54603;45.638;11.714;2023-03-19T16:17:54;5.40;;;3.00;;
67804;SDS011;54603;45.638;11.714;2023-03-19T16:20:21;7.00;;;3.60;;
67804;SDS011;54603;45.638;11.714;2023-03-19T16:22:51;5.30;;;3.30;;
67804;SDS011;54603;45.638;11.714;2023-03-19T16:27:44;5.70;;;3.10;;
67804;SDS011;54603;45.638;11.714;2023-03-19T16:30:14;7.10;;;3.00;;